createdAt,value
2018-09-08T00:00:47.460Z,17.60
2018-09-08T00:05:51.172Z,17.70
2018-09-08T00:10:54.439Z,17.30
2018-09-08T00:16:03.185Z,17.50
2018-09-08T00:21:11.620Z,17.60
2018-09-08T00:26:20.227Z,17.40
2018-09-08T00:31:23.455Z,17.60
2018-09-08T00:36:26.712Z,17.50
2018-09-08T00:41:29.944Z,17.60
2018-09-08T00:46:33.176Z,17.30
2018-09-08T00:51:36.426Z,17.60
2018-09-08T00:56:39.660Z,17.50
2018-09-08T01:01:42.903Z,17.50
2018-09-08T01:06:46.152Z,17.20
2018-09-08T01:11:49.412Z,17.20
2018-09-08T01:16:52.798Z,17.30
2018-09-08T01:21:56.039Z,17.30
2018-09-08T01:26:59.312Z,17.20
2018-09-08T01:32:02.571Z,17.40
2018-09-08T01:37:05.835Z,17.40
2018-09-08T01:42:09.087Z,17.40
2018-09-08T01:47:12.343Z,17.10
2018-09-08T01:52:15.652Z,17.30
2018-09-08T01:57:18.931Z,17.30
2018-09-08T02:02:22.199Z,17.00
2018-09-08T02:07:25.443Z,17.00
2018-09-08T02:12:28.695Z,17.20
2018-09-08T02:17:31.934Z,17.30
2018-09-08T02:22:35.175Z,17.00
2018-09-08T02:27:38.413Z,17.20
2018-09-08T02:32:41.649Z,17.30
2018-09-08T02:37:44.879Z,17.30
2018-09-08T02:42:48.110Z,17.10
2018-09-08T02:47:51.348Z,16.90
2018-09-08T02:52:53.593Z,17.00
2018-09-08T02:57:56.181Z,17.10
2018-09-08T03:02:58.436Z,17.00
2018-09-08T03:08:00.710Z,17.10
2018-09-08T03:13:02.963Z,17.00
2018-09-08T03:18:05.221Z,17.00
2018-09-08T03:23:07.479Z,17.00
2018-09-08T03:28:09.735Z,17.20
2018-09-08T03:33:11.988Z,17.00
2018-09-08T03:38:14.226Z,16.90
2018-09-08T03:43:16.490Z,17.00
2018-09-08T03:48:18.747Z,16.90
2018-09-08T03:53:20.992Z,16.90
2018-09-08T03:58:23.276Z,16.70
2018-09-08T04:03:26.519Z,17.00
2018-09-08T04:08:29.780Z,16.80
2018-09-08T04:13:33.055Z,16.70
2018-09-08T04:18:36.379Z,16.70
2018-09-08T04:23:39.607Z,17.00
2018-09-08T04:28:42.831Z,16.70
2018-09-08T04:33:46.073Z,16.70
2018-09-08T04:38:49.318Z,16.60
2018-09-08T04:43:52.626Z,16.70
2018-09-08T04:48:55.871Z,16.80
2018-09-08T04:53:59.087Z,16.80
2018-09-08T04:59:02.316Z,16.60
2018-09-08T05:04:05.546Z,16.80
2018-09-08T05:09:10.451Z,16.80
2018-09-08T05:14:13.647Z,16.80
2018-09-08T05:19:16.875Z,17.00
2018-09-08T05:24:20.123Z,16.50
2018-09-08T05:29:23.503Z,16.80
2018-09-08T05:34:26.747Z,16.70
2018-09-08T05:39:29.987Z,17.00
2018-09-08T05:44:33.223Z,17.00
2018-09-08T05:49:36.455Z,16.90
2018-09-08T05:54:39.755Z,16.90
2018-09-08T05:59:42.998Z,16.60
2018-09-08T06:04:46.235Z,16.80
2018-09-08T06:09:49.495Z,16.60
2018-09-08T06:14:52.848Z,16.60
2018-09-08T06:19:56.115Z,16.70
2018-09-08T06:24:59.415Z,16.90
2018-09-08T06:30:02.660Z,16.60
2018-09-08T06:35:05.915Z,16.60
2018-09-08T06:40:09.114Z,16.60
2018-09-08T06:45:12.495Z,16.60
2018-09-08T06:50:15.679Z,16.70
2018-09-08T06:55:18.919Z,17.10
2018-09-08T07:00:22.147Z,16.90
2018-09-08T07:05:25.391Z,16.90
2018-09-08T07:10:28.679Z,17.20
2018-09-08T07:15:31.995Z,16.90
2018-09-08T07:20:35.228Z,17.10
2018-09-08T07:25:38.473Z,17.10
2018-09-08T07:30:41.715Z,17.50
2018-09-08T07:35:44.968Z,17.20
2018-09-08T07:40:48.217Z,17.60
2018-09-08T07:45:51.491Z,17.50
2018-09-08T07:50:54.844Z,17.40
2018-09-08T07:55:58.088Z,17.30
2018-09-08T08:01:01.365Z,17.70
2018-09-08T08:06:05.594Z,17.50
2018-09-08T08:11:08.848Z,17.60
2018-09-08T08:16:12.092Z,17.60
2018-09-08T08:21:15.329Z,17.60
2018-09-08T08:26:18.564Z,17.80
2018-09-08T08:31:21.824Z,18.20
2018-09-08T08:36:25.045Z,17.90
2018-09-08T08:41:28.292Z,17.90
2018-09-08T08:46:31.519Z,18.30
2018-09-08T08:51:46.104Z,18.10
2018-09-08T08:56:49.331Z,18.30
2018-09-08T09:01:52.546Z,18.40
2018-09-08T09:06:55.758Z,18.20
2018-09-08T09:11:59.008Z,18.50
2018-09-08T09:17:02.215Z,18.80
2018-09-08T09:22:18.956Z,18.60
2018-09-08T09:27:22.676Z,18.90
2018-09-08T09:32:25.899Z,18.80
2018-09-08T09:37:29.177Z,19.00
2018-09-08T09:42:32.326Z,19.20
2018-09-08T09:47:35.543Z,19.10
2018-09-08T09:52:38.903Z,19.00
2018-09-08T09:57:42.215Z,19.20
2018-09-08T10:02:49.239Z,19.20
2018-09-08T10:07:53.168Z,19.20
2018-09-08T10:12:56.404Z,19.50
2018-09-08T10:17:59.619Z,19.50
2018-09-08T10:23:02.918Z,19.70
2018-09-08T10:28:06.071Z,19.80
2018-09-08T10:33:09.305Z,20.10
2018-09-08T10:38:12.519Z,20.00
2018-09-08T10:43:15.763Z,20.10
2018-09-08T10:48:18.992Z,20.30
2018-09-08T10:53:22.198Z,20.30
2018-09-08T10:58:25.533Z,20.30
2018-09-08T11:03:28.799Z,20.30
2018-09-08T11:08:32.081Z,20.40
2018-09-08T11:13:35.317Z,20.70
2018-09-08T11:18:38.555Z,20.50
2018-09-08T11:23:41.875Z,20.60
2018-09-08T11:28:45.115Z,20.50
2018-09-08T11:33:48.456Z,20.70
2018-09-08T11:38:51.703Z,20.80
2018-09-08T11:43:54.935Z,20.90
2018-09-08T11:48:58.159Z,21.10
2018-09-08T11:54:01.654Z,21.10
2018-09-08T11:59:05.016Z,21.10
2018-09-08T12:04:08.626Z,21.30
2018-09-08T12:09:12.547Z,21.10
2018-09-08T12:14:15.788Z,21.10
2018-09-08T12:19:19.047Z,21.10
2018-09-08T12:24:22.275Z,21.10
2018-09-08T12:29:32.000Z,21.30
2018-09-08T12:34:35.227Z,21.20
2018-09-08T12:39:38.459Z,21.10
2018-09-08T12:44:41.683Z,21.10
2018-09-08T12:49:44.915Z,21.30
2018-09-08T12:54:48.394Z,21.10
2018-09-08T12:59:51.842Z,21.20
2018-09-08T13:04:55.428Z,21.60
2018-09-08T13:09:58.865Z,21.70
2018-09-08T13:15:02.094Z,21.50
2018-09-08T13:20:05.343Z,21.40
2018-09-08T13:25:08.602Z,21.50
2018-09-08T13:30:11.811Z,21.30
2018-09-08T13:35:15.030Z,21.40
2018-09-08T13:40:18.247Z,21.40
2018-09-08T13:45:21.456Z,21.10
2018-09-08T13:50:24.707Z,21.40
2018-09-08T13:55:27.939Z,21.40
2018-09-08T14:00:31.164Z,21.40
2018-09-08T14:05:34.407Z,21.40
2018-09-08T14:10:37.672Z,21.60
2018-09-08T14:15:40.904Z,21.30
2018-09-08T14:20:44.123Z,21.30
2018-09-08T14:25:47.352Z,21.10
2018-09-08T14:30:50.583Z,21.40
2018-09-08T14:35:53.829Z,21.10
2018-09-08T14:40:57.259Z,21.30
2018-09-08T14:46:00.504Z,21.50
2018-09-08T14:51:03.854Z,21.70
2018-09-08T14:56:07.196Z,21.40
2018-09-08T15:01:10.423Z,21.50
2018-09-08T15:06:13.653Z,21.40
2018-09-08T15:11:16.897Z,21.60
2018-09-08T15:16:20.120Z,21.40
2018-09-08T15:21:23.375Z,21.40
2018-09-08T15:26:26.736Z,21.40
2018-09-08T15:31:29.919Z,21.50
2018-09-08T15:36:33.151Z,21.40
2018-09-08T15:41:36.499Z,21.40
2018-09-08T15:46:39.787Z,21.40
2018-09-08T15:51:43.034Z,21.40
2018-09-08T15:56:46.284Z,21.30
2018-09-08T16:01:49.512Z,21.60
2018-09-08T16:06:52.748Z,21.30
2018-09-08T16:11:55.987Z,21.60
2018-09-08T16:16:59.228Z,21.60
2018-09-08T16:22:02.577Z,21.70
2018-09-08T16:27:05.975Z,21.40
2018-09-08T16:32:09.251Z,21.40
2018-09-08T16:37:12.487Z,21.60
2018-09-08T16:42:15.740Z,21.40
2018-09-08T16:47:18.971Z,21.70
2018-09-08T16:52:22.247Z,21.40
2018-09-08T16:57:25.440Z,21.40
2018-09-08T17:02:28.666Z,21.40
2018-09-08T17:07:31.883Z,21.40
2018-09-08T17:12:35.131Z,21.20
2018-09-08T17:17:38.390Z,21.20
2018-09-08T17:22:41.670Z,21.50
2018-09-08T17:27:44.884Z,21.10
2018-09-08T17:32:48.103Z,21.10
2018-09-08T17:37:51.519Z,21.10
2018-09-08T17:45:02.603Z,21.10
2018-09-08T17:50:06.795Z,21.40
2018-09-08T17:55:10.019Z,20.90
2018-09-08T18:00:13.784Z,21.00
2018-09-08T18:05:16.999Z,21.00
2018-09-08T18:10:20.231Z,20.90
2018-09-08T18:15:23.461Z,21.00
2018-09-08T18:20:26.680Z,21.00
2018-09-08T18:25:29.878Z,21.00
2018-09-08T18:30:33.119Z,20.90
2018-09-08T18:35:36.327Z,20.90
2018-09-08T18:40:39.560Z,21.00
2018-09-08T18:45:42.791Z,20.70
2018-09-08T18:50:45.999Z,20.80
2018-09-08T18:55:49.207Z,20.90
2018-09-08T19:00:52.444Z,20.80
2018-09-08T19:05:55.660Z,20.80
2018-09-08T19:10:58.912Z,20.90
2018-09-08T19:16:02.192Z,20.60
2018-09-08T19:21:05.856Z,20.60
2018-09-08T19:26:09.083Z,20.90
2018-09-08T19:31:12.313Z,20.50
2018-09-08T19:36:15.547Z,20.50
2018-09-08T19:41:18.781Z,20.40
2018-09-08T19:46:27.374Z,20.40
2018-09-08T19:51:30.636Z,20.50
2018-09-08T19:56:39.411Z,20.40
2018-09-08T20:01:42.643Z,20.60
2018-09-08T20:06:45.883Z,20.30
2018-09-08T20:11:49.151Z,20.50
2018-09-08T20:16:52.379Z,20.30
2018-09-08T20:21:55.620Z,20.20
2018-09-08T20:26:58.902Z,20.20
2018-09-08T20:32:02.087Z,20.20
2018-09-08T20:37:05.425Z,20.50
2018-09-08T20:42:08.653Z,20.10
2018-09-08T20:47:12.095Z,20.10
2018-09-08T20:52:15.728Z,20.20
2018-09-08T20:57:18.956Z,20.00
2018-09-08T21:02:22.167Z,20.00
2018-09-08T21:07:25.392Z,20.30
2018-09-08T21:12:28.656Z,20.00
2018-09-08T21:17:31.887Z,20.00
2018-09-08T21:22:35.266Z,20.00
2018-09-08T21:27:38.503Z,20.20
2018-09-08T21:32:41.736Z,20.00
2018-09-08T21:37:44.979Z,20.00
2018-09-08T21:42:48.223Z,20.00
2018-09-08T21:47:51.480Z,19.80
2018-09-08T21:52:54.699Z,19.90
2018-09-08T21:57:57.927Z,19.90
2018-09-08T22:03:01.168Z,19.60
2018-09-08T22:08:04.411Z,19.90
2018-09-08T22:13:07.673Z,20.00
2018-09-08T22:18:10.935Z,19.70
2018-09-08T22:23:14.166Z,19.60
2018-09-08T22:28:17.421Z,19.60
2018-09-08T22:33:20.660Z,19.80
2018-09-08T22:38:23.891Z,19.80
2018-09-08T22:43:27.239Z,19.60
2018-09-08T22:48:30.471Z,19.70
2018-09-08T22:53:33.694Z,19.50
2018-09-08T22:58:36.911Z,19.70
2018-09-08T23:03:40.135Z,19.70
2018-09-08T23:08:43.416Z,19.40
2018-09-08T23:13:46.667Z,19.70
2018-09-08T23:18:50.724Z,19.60
2018-09-08T23:23:54.000Z,19.50
2018-09-08T23:28:57.231Z,19.40
2018-09-08T23:34:00.467Z,19.60
2018-09-08T23:39:04.906Z,19.60
2018-09-08T23:44:08.131Z,19.40
2018-09-08T23:49:11.374Z,19.40
2018-09-08T23:54:14.623Z,19.50
2018-09-08T23:59:17.852Z,19.60
